sensor_id;sensor_type;location;lat;lon;timestamp;temperature;humidity
16517;DHT22;8371;52.272;9.746;2023-02-28T00:00:11;2.00;68.90
16517;DHT22;8371;52.272;9.746;2023-02-28T00:02:38;2.10;69.00
16517;DHT22;8371;52.272;9.746;2023-02-28T00:05:05;2.10;69.10
16517;DHT22;8371;52.272;9.746;2023-02-28T00:07:31;2.10;69.30
16517;DHT22;8371;52.272;9.746;2023-02-28T00:09:57;2.10;69.40
16517;DHT22;8371;52.272;9.746;2023-02-28T00:12:23;2.20;69.50
16517;DHT22;8371;52.272;9.746;2023-02-28T00:14:50;2.20;69.60
16517;DHT22;8371;52.272;9.746;2023-02-28T00:17:16;2.20;69.50
16517;DHT22;8371;52.272;9.746;2023-02-28T00:19:43;2.30;69.60
16517;DHT22;8371;52.272;9.746;2023-02-28T00:22:09;2.30;69.60
16517;DHT22;8371;52.272;9.746;2023-02-28T00:24:35;2.30;69.60
16517;DHT22;8371;52.272;9.746;2023-02-28T00:27:01;2.30;69.50
16517;DHT22;8371;52.272;9.746;2023-02-28T00:29:26;2.30;69.50
16517;DHT22;8371;52.272;9.746;2023-02-28T00:31:52;2.30;69.50
16517;DHT22;8371;52.272;9.746;2023-02-28T00:34:18;2.30;69.70
16517;DHT22;8371;52.272;9.746;2023-02-28T00:36:43;2.30;69.60
16517;DHT22;8371;52.272;9.746;2023-02-28T00:39:11;2.30;69.70
16517;DHT22;8371;52.272;9.746;2023-02-28T00:41:37;2.30;69.70
16517;DHT22;8371;52.272;9.746;2023-02-28T00:44:02;2.30;69.80
16517;DHT22;8371;52.272;9.746;2023-02-28T00:46:28;2.30;69.70
16517;DHT22;8371;52.272;9.746;2023-02-28T00:48:54;2.30;69.70
16517;DHT22;8371;52.272;9.746;2023-02-28T00:51:19;2.30;69.70
16517;DHT22;8371;52.272;9.746;2023-02-28T00:53:45;2.30;70.20
16517;DHT22;8371;52.272;9.746;2023-02-28T00:56:11;2.20;69.40
16517;DHT22;8371;52.272;9.746;2023-02-28T00:58:36;2.20;69.40
16517;DHT22;8371;52.272;9.746;2023-02-28T01:01:02;2.10;69.30
16517;DHT22;8371;52.272;9.746;2023-02-28T01:03:28;2.10;69.30
16517;DHT22;8371;52.272;9.746;2023-02-28T01:05:54;2.00;69.20
16517;DHT22;8371;52.272;9.746;2023-02-28T01:08:19;2.00;69.30
16517;DHT22;8371;52.272;9.746;2023-02-28T01:10:45;1.90;69.20
16517;DHT22;8371;52.272;9.746;2023-02-28T01:13:12;1.80;69.20
16517;DHT22;8371;52.272;9.746;2023-02-28T01:15:48;1.70;70.00
16517;DHT22;8371;52.272;9.746;2023-02-28T01:18:13;1.60;68.80
16517;DHT22;8371;52.272;9.746;2023-02-28T01:20:39;1.60;69.20
16517;DHT22;8371;52.272;9.746;2023-02-28T01:23:04;1.50;69.20
16517;DHT22;8371;52.272;9.746;2023-02-28T01:25:30;1.40;69.20
16517;DHT22;8371;52.272;9.746;2023-02-28T01:27:56;1.30;69.10
16517;DHT22;8371;52.272;9.746;2023-02-28T01:30:21;1.20;69.10
16517;DHT22;8371;52.272;9.746;2023-02-28T01:32:47;1.10;69.20
16517;DHT22;8371;52.272;9.746;2023-02-28T01:35:13;1.00;69.10
16517;DHT22;8371;52.272;9.746;2023-02-28T01:37:39;0.90;69.20
16517;DHT22;8371;52.272;9.746;2023-02-28T01:40:05;0.80;69.20
16517;DHT22;8371;52.272;9.746;2023-02-28T01:42:31;0.70;70.10
16517;DHT22;8371;52.272;9.746;2023-02-28T01:45:17;0.70;69.50
16517;DHT22;8371;52.272;9.746;2023-02-28T01:47:43;0.60;69.50
16517;DHT22;8371;52.272;9.746;2023-02-28T01:50:14;0.50;69.50
16517;DHT22;8371;52.272;9.746;2023-02-28T01:52:41;0.50;69.60
16517;DHT22;8371;52.272;9.746;2023-02-28T01:55:09;0.40;69.70
16517;DHT22;8371;52.272;9.746;2023-02-28T01:57:38;0.40;69.70
16517;DHT22;8371;52.272;9.746;2023-02-28T02:02:39;0.30;69.80
16517;DHT22;8371;52.272;9.746;2023-02-28T02:05:20;0.20;69.80
16517;DHT22;8371;52.272;9.746;2023-02-28T02:07:49;0.10;69.80
16517;DHT22;8371;52.272;9.746;2023-02-28T02:10:20;0.10;69.80
16517;DHT22;8371;52.272;9.746;2023-02-28T02:12:59;0.00;69.70
16517;DHT22;8371;52.272;9.746;2023-02-28T02:18:27;-0.10;69.80
16517;DHT22;8371;52.272;9.746;2023-02-28T02:23:52;-0.30;69.90
16517;DHT22;8371;52.272;9.746;2023-02-28T02:29:45;-0.40;70.10
16517;DHT22;8371;52.272;9.746;2023-02-28T02:40:19;-0.60;70.20
16517;DHT22;8371;52.272;9.746;2023-02-28T02:43:01;-0.70;70.30
16517;DHT22;8371;52.272;9.746;2023-02-28T02:45:48;-0.70;70.40
16517;DHT22;8371;52.272;9.746;2023-02-28T02:48:17;-0.70;70.50
16517;DHT22;8371;52.272;9.746;2023-02-28T02:50:46;-0.70;70.60
16517;DHT22;8371;52.272;9.746;2023-02-28T02:53:14;-0.80;70.60
16517;DHT22;8371;52.272;9.746;2023-02-28T02:55:43;-0.80;70.70
16517;DHT22;8371;52.272;9.746;2023-02-28T02:58:13;-0.80;70.70
16517;DHT22;8371;52.272;9.746;2023-02-28T03:00:42;-0.80;70.70
16517;DHT22;8371;52.272;9.746;2023-02-28T03:03:10;-0.90;70.70
16517;DHT22;8371;52.272;9.746;2023-02-28T03:05:46;-0.90;70.80
16517;DHT22;8371;52.272;9.746;2023-02-28T03:08:11;-0.90;70.90
16517;DHT22;8371;52.272;9.746;2023-02-28T03:10:40;-0.90;71.60
16517;DHT22;8371;52.272;9.746;2023-02-28T03:15:52;-0.90;71.00
16517;DHT22;8371;52.272;9.746;2023-02-28T03:18:22;-0.90;71.00
16517;DHT22;8371;52.272;9.746;2023-02-28T03:21:02;-0.90;71.10
16517;DHT22;8371;52.272;9.746;2023-02-28T03:23:42;-0.90;71.10
16517;DHT22;8371;52.272;9.746;2023-02-28T03:26:16;-1.00;71.10
16517;DHT22;8371;52.272;9.746;2023-02-28T03:28:51;-1.00;71.10
16517;DHT22;8371;52.272;9.746;2023-02-28T03:31:19;-1.00;71.10
16517;DHT22;8371;52.272;9.746;2023-02-28T03:33:51;-1.00;71.10
16517;DHT22;8371;52.272;9.746;2023-02-28T03:36:27;-1.10;71.20
16517;DHT22;8371;52.272;9.746;2023-02-28T03:41:35;-1.10;71.20
16517;DHT22;8371;52.272;9.746;2023-02-28T03:44:06;-1.10;71.30
16517;DHT22;8371;52.272;9.746;2023-02-28T03:46:36;-1.10;72.20
16517;DHT22;8371;52.272;9.746;2023-02-28T03:49:17;-1.10;71.40
16517;DHT22;8371;52.272;9.746;2023-02-28T03:51:45;-1.20;71.60
16517;DHT22;8371;52.272;9.746;2023-02-28T03:54:27;-1.20;71.40
16517;DHT22;8371;52.272;9.746;2023-02-28T03:57:15;-1.20;71.40
16517;DHT22;8371;52.272;9.746;2023-02-28T03:59:43;-1.20;72.20
16517;DHT22;8371;52.272;9.746;2023-02-28T04:02:09;-1.20;71.40
16517;DHT22;8371;52.272;9.746;2023-02-28T04:04:35;-1.30;71.40
16517;DHT22;8371;52.272;9.746;2023-02-28T04:07:04;-1.30;71.40
16517;DHT22;8371;52.272;9.746;2023-02-28T04:09:30;-1.30;71.40
16517;DHT22;8371;52.272;9.746;2023-02-28T04:11:55;-1.30;71.50
16517;DHT22;8371;52.272;9.746;2023-02-28T04:14:21;-1.40;71.40
16517;DHT22;8371;52.272;9.746;2023-02-28T04:16:48;-1.40;71.50
16517;DHT22;8371;52.272;9.746;2023-02-28T04:19:14;-1.40;71.50
16517;DHT22;8371;52.272;9.746;2023-02-28T04:21:42;-1.40;71.50
16517;DHT22;8371;52.272;9.746;2023-02-28T04:24:09;-1.40;71.50
16517;DHT22;8371;52.272;9.746;2023-02-28T04:26:37;-1.40;71.60
16517;DHT22;8371;52.272;9.746;2023-02-28T04:29:05;-1.40;71.60
16517;DHT22;8371;52.272;9.746;2023-02-28T04:31:31;-1.40;71.60
16517;DHT22;8371;52.272;9.746;2023-02-28T04:33:56;-1.50;71.50
16517;DHT22;8371;52.272;9.746;2023-02-28T04:36:22;-1.50;71.50
16517;DHT22;8371;52.272;9.746;2023-02-28T04:38:48;-1.60;71.40
16517;DHT22;8371;52.272;9.746;2023-02-28T04:41:14;-1.60;71.40
16517;DHT22;8371;52.272;9.746;2023-02-28T04:43:40;-1.60;71.40
16517;DHT22;8371;52.272;9.746;2023-02-28T04:46:06;-1.60;71.40
16517;DHT22;8371;52.272;9.746;2023-02-28T04:48:34;-1.70;71.60
16517;DHT22;8371;52.272;9.746;2023-02-28T04:51:02;-1.70;71.50
16517;DHT22;8371;52.272;9.746;2023-02-28T04:53:29;-1.70;71.70
16517;DHT22;8371;52.272;9.746;2023-02-28T04:55:56;-1.70;71.60
16517;DHT22;8371;52.272;9.746;2023-02-28T04:58:21;-1.70;71.70
16517;DHT22;8371;52.272;9.746;2023-02-28T05:00:51;-1.70;71.60
16517;DHT22;8371;52.272;9.746;2023-02-28T05:03:17;-1.80;71.60
16517;DHT22;8371;52.272;9.746;2023-02-28T05:05:42;-1.80;71.60
16517;DHT22;8371;52.272;9.746;2023-02-28T05:08:08;-1.80;71.70
16517;DHT22;8371;52.272;9.746;2023-02-28T05:10:35;-1.80;71.70
16517;DHT22;8371;52.272;9.746;2023-02-28T05:13:01;-1.90;71.60
16517;DHT22;8371;52.272;9.746;2023-02-28T05:15:27;-1.90;71.70
16517;DHT22;8371;52.272;9.746;2023-02-28T05:17:53;-1.90;71.70
16517;DHT22;8371;52.272;9.746;2023-02-28T05:20:19;-1.90;71.70
16517;DHT22;8371;52.272;9.746;2023-02-28T05:22:46;-1.90;72.00
16517;DHT22;8371;52.272;9.746;2023-02-28T05:25:15;-1.90;72.00
16517;DHT22;8371;52.272;9.746;2023-02-28T05:27:41;-1.90;72.00
16517;DHT22;8371;52.272;9.746;2023-02-28T05:30:09;-1.90;72.10
16517;DHT22;8371;52.272;9.746;2023-02-28T05:32:39;-1.90;72.20
16517;DHT22;8371;52.272;9.746;2023-02-28T05:35:07;-1.80;72.30
16517;DHT22;8371;52.272;9.746;2023-02-28T05:37:33;-1.80;72.30
16517;DHT22;8371;52.272;9.746;2023-02-28T05:39:59;-1.80;72.30
16517;DHT22;8371;52.272;9.746;2023-02-28T05:42:25;-1.80;72.30
16517;DHT22;8371;52.272;9.746;2023-02-28T05:44:50;-1.80;72.30
16517;DHT22;8371;52.272;9.746;2023-02-28T05:47:17;-1.80;72.30
16517;DHT22;8371;52.272;9.746;2023-02-28T05:49:42;-1.70;72.40
16517;DHT22;8371;52.272;9.746;2023-02-28T05:52:08;-1.70;72.30
16517;DHT22;8371;52.272;9.746;2023-02-28T05:54:34;-1.70;72.30
16517;DHT22;8371;52.272;9.746;2023-02-28T05:56:59;-1.70;72.30
16517;DHT22;8371;52.272;9.746;2023-02-28T05:59:25;-1.70;72.30
16517;DHT22;8371;52.272;9.746;2023-02-28T06:01:51;-1.70;72.30
16517;DHT22;8371;52.272;9.746;2023-02-28T06:04:20;-1.70;72.40
16517;DHT22;8371;52.272;9.746;2023-02-28T06:06:46;-1.70;72.20
16517;DHT22;8371;52.272;9.746;2023-02-28T06:09:12;-1.70;72.30
16517;DHT22;8371;52.272;9.746;2023-02-28T06:11:39;-1.70;72.30
16517;DHT22;8371;52.272;9.746;2023-02-28T06:14:05;-1.70;72.30
16517;DHT22;8371;52.272;9.746;2023-02-28T06:16:33;-1.70;72.30
16517;DHT22;8371;52.272;9.746;2023-02-28T06:19:00;-1.80;72.30
16517;DHT22;8371;52.272;9.746;2023-02-28T06:21:27;-1.70;72.40
16517;DHT22;8371;52.272;9.746;2023-02-28T06:23:53;-1.70;72.40
16517;DHT22;8371;52.272;9.746;2023-02-28T06:26:19;-1.70;72.40
16517;DHT22;8371;52.272;9.746;2023-02-28T06:28:45;-1.70;72.50
16517;DHT22;8371;52.272;9.746;2023-02-28T06:31:13;-1.70;72.50
16517;DHT22;8371;52.272;9.746;2023-02-28T06:33:40;-1.70;72.60
16517;DHT22;8371;52.272;9.746;2023-02-28T06:36:07;-1.70;72.60
16517;DHT22;8371;52.272;9.746;2023-02-28T06:38:33;-1.70;72.60
16517;DHT22;8371;52.272;9.746;2023-02-28T06:41:00;-1.70;72.60
16517;DHT22;8371;52.272;9.746;2023-02-28T06:43:28;-1.70;72.70
16517;DHT22;8371;52.272;9.746;2023-02-28T06:45:56;-1.70;72.70
16517;DHT22;8371;52.272;9.746;2023-02-28T06:48:22;-1.60;72.70
16517;DHT22;8371;52.272;9.746;2023-02-28T06:50:48;-1.60;72.70
16517;DHT22;8371;52.272;9.746;2023-02-28T06:53:14;-1.60;72.70
16517;DHT22;8371;52.272;9.746;2023-02-28T06:55:40;-1.60;72.70
16517;DHT22;8371;52.272;9.746;2023-02-28T06:58:06;-1.60;72.70
16517;DHT22;8371;52.272;9.746;2023-02-28T07:00:43;-1.60;72.70
16517;DHT22;8371;52.272;9.746;2023-02-28T07:03:10;-1.60;72.70
16517;DHT22;8371;52.272;9.746;2023-02-28T07:05:36;-1.50;72.80
16517;DHT22;8371;52.272;9.746;2023-02-28T07:08:03;-1.60;72.70
16517;DHT22;8371;52.272;9.746;2023-02-28T07:10:30;-1.50;72.90
16517;DHT22;8371;52.272;9.746;2023-02-28T07:12:55;-1.50;72.90
16517;DHT22;8371;52.272;9.746;2023-02-28T07:15:21;-1.50;73.10
16517;DHT22;8371;52.272;9.746;2023-02-28T07:17:47;-1.40;73.00
16517;DHT22;8371;52.272;9.746;2023-02-28T07:20:12;-1.40;73.00
16517;DHT22;8371;52.272;9.746;2023-02-28T07:22:38;-1.40;73.10
16517;DHT22;8371;52.272;9.746;2023-02-28T07:25:05;-1.30;73.20
16517;DHT22;8371;52.272;9.746;2023-02-28T07:27:31;-1.30;73.30
16517;DHT22;8371;52.272;9.746;2023-02-28T07:29:57;-1.20;73.30
16517;DHT22;8371;52.272;9.746;2023-02-28T07:32:22;-1.20;73.40
16517;DHT22;8371;52.272;9.746;2023-02-28T07:34:48;-1.10;73.60
16517;DHT22;8371;52.272;9.746;2023-02-28T07:37:14;-1.10;73.60
16517;DHT22;8371;52.272;9.746;2023-02-28T07:39:40;-1.00;73.70
16517;DHT22;8371;52.272;9.746;2023-02-28T07:42:07;-0.90;74.00
16517;DHT22;8371;52.272;9.746;2023-02-28T07:44:35;-0.80;74.00
16517;DHT22;8371;52.272;9.746;2023-02-28T07:47:03;-0.70;74.10
16517;DHT22;8371;52.272;9.746;2023-02-28T07:49:29;-0.60;74.10
16517;DHT22;8371;52.272;9.746;2023-02-28T07:51:54;-0.50;74.30
16517;DHT22;8371;52.272;9.746;2023-02-28T07:54:20;-0.40;74.40
16517;DHT22;8371;52.272;9.746;2023-02-28T07:56:46;-0.30;74.40
16517;DHT22;8371;52.272;9.746;2023-02-28T07:59:11;-0.20;74.50
16517;DHT22;8371;52.272;9.746;2023-02-28T08:01:37;-0.10;74.70
16517;DHT22;8371;52.272;9.746;2023-02-28T08:04:03;0.00;74.80
16517;DHT22;8371;52.272;9.746;2023-02-28T08:06:29;0.20;74.90
16517;DHT22;8371;52.272;9.746;2023-02-28T08:08:54;0.30;75.00
16517;DHT22;8371;52.272;9.746;2023-02-28T08:11:21;0.40;75.00
16517;DHT22;8371;52.272;9.746;2023-02-28T08:13:47;0.50;75.00
16517;DHT22;8371;52.272;9.746;2023-02-28T08:16:13;0.60;75.00
16517;DHT22;8371;52.272;9.746;2023-02-28T08:18:41;0.70;74.90
16517;DHT22;8371;52.272;9.746;2023-02-28T08:21:08;0.80;74.90
16517;DHT22;8371;52.272;9.746;2023-02-28T08:23:35;0.90;74.80
16517;DHT22;8371;52.272;9.746;2023-02-28T08:26:02;1.00;74.90
16517;DHT22;8371;52.272;9.746;2023-02-28T08:28:27;1.20;75.10
16517;DHT22;8371;52.272;9.746;2023-02-28T08:30:53;1.30;75.00
16517;DHT22;8371;52.272;9.746;2023-02-28T08:33:21;1.30;75.10
16517;DHT22;8371;52.272;9.746;2023-02-28T08:35:47;1.40;75.10
16517;DHT22;8371;52.272;9.746;2023-02-28T08:38:12;1.50;75.40
16517;DHT22;8371;52.272;9.746;2023-02-28T08:40:38;1.70;75.70
16517;DHT22;8371;52.272;9.746;2023-02-28T08:43:04;1.70;75.80
16517;DHT22;8371;52.272;9.746;2023-02-28T08:45:29;1.80;76.00
16517;DHT22;8371;52.272;9.746;2023-02-28T08:47:55;1.90;76.30
16517;DHT22;8371;52.272;9.746;2023-02-28T08:50:22;2.00;76.00
16517;DHT22;8371;52.272;9.746;2023-02-28T08:52:47;2.10;75.70
16517;DHT22;8371;52.272;9.746;2023-02-28T08:55:13;2.20;75.60
16517;DHT22;8371;52.272;9.746;2023-02-28T08:57:39;2.30;75.50
16517;DHT22;8371;52.272;9.746;2023-02-28T09:00:07;2.40;75.20
16517;DHT22;8371;52.272;9.746;2023-02-28T09:02:33;2.50;75.00
16517;DHT22;8371;52.272;9.746;2023-02-28T09:04:59;2.50;75.50
16517;DHT22;8371;52.272;9.746;2023-02-28T09:07:25;2.60;75.30
16517;DHT22;8371;52.272;9.746;2023-02-28T09:09:51;2.70;74.90
16517;DHT22;8371;52.272;9.746;2023-02-28T09:12:21;2.80;74.40
16517;DHT22;8371;52.272;9.746;2023-02-28T09:14:47;2.90;74.30
16517;DHT22;8371;52.272;9.746;2023-02-28T09:17:13;3.00;73.50
16517;DHT22;8371;52.272;9.746;2023-02-28T09:19:38;3.00;74.10
16517;DHT22;8371;52.272;9.746;2023-02-28T09:22:04;3.10;73.90
16517;DHT22;8371;52.272;9.746;2023-02-28T09:24:29;3.20;74.00
16517;DHT22;8371;52.272;9.746;2023-02-28T09:26:57;3.30;74.20
16517;DHT22;8371;52.272;9.746;2023-02-28T09:29:22;3.40;74.00
16517;DHT22;8371;52.272;9.746;2023-02-28T09:31:48;3.50;73.70
16517;DHT22;8371;52.272;9.746;2023-02-28T09:34:14;3.70;73.60
16517;DHT22;8371;52.272;9.746;2023-02-28T09:36:41;3.80;73.90
16517;DHT22;8371;52.272;9.746;2023-02-28T09:39:07;3.90;73.80
16517;DHT22;8371;52.272;9.746;2023-02-28T09:41:52;4.00;73.70
16517;DHT22;8371;52.272;9.746;2023-02-28T09:44:12;4.10;73.50
16517;DHT22;8371;52.272;9.746;2023-02-28T09:46:42;4.30;73.30
16517;DHT22;8371;52.272;9.746;2023-02-28T09:49:14;4.40;73.20
16517;DHT22;8371;52.272;9.746;2023-02-28T09:54:21;4.70;72.90
16517;DHT22;8371;52.272;9.746;2023-02-28T09:56:51;4.90;72.80
16517;DHT22;8371;52.272;9.746;2023-02-28T09:59:25;5.00;72.90
16517;DHT22;8371;52.272;9.746;2023-02-28T10:02:09;5.20;72.70
16517;DHT22;8371;52.272;9.746;2023-02-28T10:04:54;5.40;72.70
16517;DHT22;8371;52.272;9.746;2023-02-28T10:07:36;5.50;72.70
16517;DHT22;8371;52.272;9.746;2023-02-28T10:10:00;5.80;72.50
16517;DHT22;8371;52.272;9.746;2023-02-28T10:12:28;6.00;71.50
16517;DHT22;8371;52.272;9.746;2023-02-28T10:14:56;6.20;72.00
16517;DHT22;8371;52.272;9.746;2023-02-28T10:17:26;6.40;71.70
16517;DHT22;8371;52.272;9.746;2023-02-28T10:20:02;6.60;71.70
16517;DHT22;8371;52.272;9.746;2023-02-28T10:22:41;6.80;70.70
16517;DHT22;8371;52.272;9.746;2023-02-28T10:25:17;7.00;69.70
16517;DHT22;8371;52.272;9.746;2023-02-28T10:27:43;7.10;70.50
16517;DHT22;8371;52.272;9.746;2023-02-28T10:30:11;7.40;70.40
16517;DHT22;8371;52.272;9.746;2023-02-28T10:32:38;7.50;70.20
16517;DHT22;8371;52.272;9.746;2023-02-28T10:35:19;7.60;70.30
16517;DHT22;8371;52.272;9.746;2023-02-28T10:37:48;7.80;70.00
16517;DHT22;8371;52.272;9.746;2023-02-28T10:43:04;8.20;69.00
16517;DHT22;8371;52.272;9.746;2023-02-28T10:45:32;8.40;68.90
16517;DHT22;8371;52.272;9.746;2023-02-28T10:58:57;9.50;68.90
16517;DHT22;8371;52.272;9.746;2023-02-28T11:01:43;9.70;68.50
16517;DHT22;8371;52.272;9.746;2023-02-28T11:04:32;10.00;68.50
16517;DHT22;8371;52.272;9.746;2023-02-28T11:07:03;10.30;68.10
16517;DHT22;8371;52.272;9.746;2023-02-28T11:09:38;10.60;68.00
16517;DHT22;8371;52.272;9.746;2023-02-28T11:12:07;10.80;67.10
16517;DHT22;8371;52.272;9.746;2023-02-28T11:14:39;11.00;66.10
16517;DHT22;8371;52.272;9.746;2023-02-28T11:17:21;11.10;64.90
16517;DHT22;8371;52.272;9.746;2023-02-28T11:19:51;11.30;65.00
16517;DHT22;8371;52.272;9.746;2023-02-28T11:22:20;11.30;63.30
16517;DHT22;8371;52.272;9.746;2023-02-28T11:24:50;11.30;63.90
16517;DHT22;8371;52.272;9.746;2023-02-28T11:30:05;11.20;62.70
16517;DHT22;8371;52.272;9.746;2023-02-28T11:32:33;11.20;63.20
16517;DHT22;8371;52.272;9.746;2023-02-28T11:35:31;11.10;63.50
16517;DHT22;8371;52.272;9.746;2023-02-28T11:38:00;11.00;61.40
16517;DHT22;8371;52.272;9.746;2023-02-28T11:40:39;10.80;61.10
16517;DHT22;8371;52.272;9.746;2023-02-28T11:45:45;10.60;61.30
16517;DHT22;8371;52.272;9.746;2023-02-28T11:48:23;10.50;61.50
16517;DHT22;8371;52.272;9.746;2023-02-28T11:51:06;10.30;61.70
16517;DHT22;8371;52.272;9.746;2023-02-28T11:53:43;10.20;61.50
16517;DHT22;8371;52.272;9.746;2023-02-28T11:58:58;10.00;58.50
16517;DHT22;8371;52.272;9.746;2023-02-28T12:01:48;9.80;59.90
16517;DHT22;8371;52.272;9.746;2023-02-28T12:04:17;9.70;60.70
16517;DHT22;8371;52.272;9.746;2023-02-28T12:06:50;9.60;59.90
16517;DHT22;8371;52.272;9.746;2023-02-28T12:09:35;9.50;58.60
16517;DHT22;8371;52.272;9.746;2023-02-28T12:12:23;9.50;60.00
16517;DHT22;8371;52.272;9.746;2023-02-28T12:15:17;9.40;59.20
16517;DHT22;8371;52.272;9.746;2023-02-28T12:17:51;9.30;58.60
16517;DHT22;8371;52.272;9.746;2023-02-28T12:28:46;9.50;59.90
16517;DHT22;8371;52.272;9.746;2023-02-28T12:31:24;9.70;58.50
16517;DHT22;8371;52.272;9.746;2023-02-28T12:33:59;9.80;60.20
16517;DHT22;8371;52.272;9.746;2023-02-28T12:36:24;10.00;60.80
16517;DHT22;8371;52.272;9.746;2023-02-28T12:38:58;10.20;57.50
16517;DHT22;8371;52.272;9.746;2023-02-28T12:41:36;10.40;59.60
16517;DHT22;8371;52.272;9.746;2023-02-28T12:44:13;10.60;59.50
16517;DHT22;8371;52.272;9.746;2023-02-28T12:46:41;10.70;57.60
16517;DHT22;8371;52.272;9.746;2023-02-28T12:49:09;10.90;55.90
16517;DHT22;8371;52.272;9.746;2023-02-28T12:51:36;10.90;55.80
16517;DHT22;8371;52.272;9.746;2023-02-28T12:54:16;10.90;55.30
16517;DHT22;8371;52.272;9.746;2023-02-28T12:57:02;10.90;54.50
16517;DHT22;8371;52.272;9.746;2023-02-28T12:59:38;10.80;53.30
16517;DHT22;8371;52.272;9.746;2023-02-28T13:10:56;10.10;54.30
16517;DHT22;8371;52.272;9.746;2023-02-28T13:13:24;9.80;54.50
16517;DHT22;8371;52.272;9.746;2023-02-28T13:16:10;9.70;54.70
16517;DHT22;8371;52.272;9.746;2023-02-28T13:18:43;9.50;54.40
16517;DHT22;8371;52.272;9.746;2023-02-28T13:21:27;9.40;55.70
16517;DHT22;8371;52.272;9.746;2023-02-28T13:34:36;9.00;57.60
16517;DHT22;8371;52.272;9.746;2023-02-28T13:39:55;8.90;57.40
16517;DHT22;8371;52.272;9.746;2023-02-28T13:42:32;8.90;55.40
16517;DHT22;8371;52.272;9.746;2023-02-28T13:47:39;8.90;53.80
16517;DHT22;8371;52.272;9.746;2023-02-28T13:59:06;8.70;54.90
16517;DHT22;8371;52.272;9.746;2023-02-28T14:01:57;8.70;56.30
16517;DHT22;8371;52.272;9.746;2023-02-28T14:04:40;8.70;56.00
16517;DHT22;8371;52.272;9.746;2023-02-28T14:07:03;8.70;57.00
16517;DHT22;8371;52.272;9.746;2023-02-28T14:09:31;8.60;57.40
16517;DHT22;8371;52.272;9.746;2023-02-28T14:17:15;8.70;57.20
16517;DHT22;8371;52.272;9.746;2023-02-28T14:19:44;8.70;57.40
16517;DHT22;8371;52.272;9.746;2023-02-28T14:28:40;8.80;56.90
16517;DHT22;8371;52.272;9.746;2023-02-28T14:31:12;8.80;57.10
16517;DHT22;8371;52.272;9.746;2023-02-28T14:36:32;8.90;55.50
16517;DHT22;8371;52.272;9.746;2023-02-28T14:39:07;8.90;56.80
16517;DHT22;8371;52.272;9.746;2023-02-28T14:41:37;8.90;56.70
16517;DHT22;8371;52.272;9.746;2023-02-28T14:44:25;8.90;56.70
16517;DHT22;8371;52.272;9.746;2023-02-28T14:46:57;9.00;57.20
16517;DHT22;8371;52.272;9.746;2023-02-28T14:49:28;9.00;55.50
16517;DHT22;8371;52.272;9.746;2023-02-28T14:52:19;9.00;56.70
16517;DHT22;8371;52.272;9.746;2023-02-28T14:54:45;9.00;57.00
16517;DHT22;8371;52.272;9.746;2023-02-28T14:57:26;9.00;57.10
16517;DHT22;8371;52.272;9.746;2023-02-28T15:02:51;9.10;57.40
16517;DHT22;8371;52.272;9.746;2023-02-28T15:05:27;9.20;57.60
16517;DHT22;8371;52.272;9.746;2023-02-28T15:08:14;9.20;55.40
16517;DHT22;8371;52.272;9.746;2023-02-28T15:10:51;9.20;56.60
16517;DHT22;8371;52.272;9.746;2023-02-28T15:13:14;9.20;57.60
16517;DHT22;8371;52.272;9.746;2023-02-28T15:18:15;9.30;56.90
16517;DHT22;8371;52.272;9.746;2023-02-28T15:20:42;9.30;57.40
16517;DHT22;8371;52.272;9.746;2023-02-28T15:23:10;9.30;57.10
16517;DHT22;8371;52.272;9.746;2023-02-28T15:25:36;9.40;57.00
16517;DHT22;8371;52.272;9.746;2023-02-28T15:28:02;9.40;57.30
16517;DHT22;8371;52.272;9.746;2023-02-28T15:30:30;9.30;56.90
16517;DHT22;8371;52.272;9.746;2023-02-28T15:33:18;9.30;56.90
16517;DHT22;8371;52.272;9.746;2023-02-28T15:35:33;9.30;57.20
16517;DHT22;8371;52.272;9.746;2023-02-28T15:38:18;9.30;57.00
16517;DHT22;8371;52.272;9.746;2023-02-28T15:40:56;9.30;56.30
16517;DHT22;8371;52.272;9.746;2023-02-28T15:46:02;9.30;55.80
16517;DHT22;8371;52.272;9.746;2023-02-28T15:48:31;9.30;55.90
16517;DHT22;8371;52.272;9.746;2023-02-28T15:53:33;9.20;55.50
16517;DHT22;8371;52.272;9.746;2023-02-28T15:56:02;9.20;56.20
16517;DHT22;8371;52.272;9.746;2023-02-28T15:58:29;9.20;55.80
16517;DHT22;8371;52.272;9.746;2023-02-28T16:01:16;9.10;55.80
16517;DHT22;8371;52.272;9.746;2023-02-28T16:03:45;9.00;56.30
16517;DHT22;8371;52.272;9.746;2023-02-28T16:06:39;9.00;56.30
16517;DHT22;8371;52.272;9.746;2023-02-28T16:09:09;8.90;56.00
16517;DHT22;8371;52.272;9.746;2023-02-28T16:11:38;8.80;56.30
16517;DHT22;8371;52.272;9.746;2023-02-28T16:14:08;8.70;56.50
16517;DHT22;8371;52.272;9.746;2023-02-28T16:16:34;8.60;56.30
16517;DHT22;8371;52.272;9.746;2023-02-28T16:19:02;8.50;55.40
16517;DHT22;8371;52.272;9.746;2023-02-28T16:21:27;8.30;55.60
16517;DHT22;8371;52.272;9.746;2023-02-28T16:23:53;8.20;56.30
16517;DHT22;8371;52.272;9.746;2023-02-28T16:26:21;8.10;56.30
16517;DHT22;8371;52.272;9.746;2023-02-28T16:28:48;8.00;55.60
16517;DHT22;8371;52.272;9.746;2023-02-28T16:31:14;7.90;55.90
16517;DHT22;8371;52.272;9.746;2023-02-28T16:33:45;7.80;56.30
16517;DHT22;8371;52.272;9.746;2023-02-28T16:36:20;7.70;56.50
16517;DHT22;8371;52.272;9.746;2023-02-28T16:38:46;7.50;56.40
16517;DHT22;8371;52.272;9.746;2023-02-28T16:41:14;7.40;56.50
16517;DHT22;8371;52.272;9.746;2023-02-28T16:43:43;7.30;56.70
16517;DHT22;8371;52.272;9.746;2023-02-28T16:46:11;7.20;56.80
16517;DHT22;8371;52.272;9.746;2023-02-28T16:48:38;7.10;57.40
16517;DHT22;8371;52.272;9.746;2023-02-28T16:51:04;7.00;57.00
16517;DHT22;8371;52.272;9.746;2023-02-28T16:53:30;6.80;57.00
16517;DHT22;8371;52.272;9.746;2023-02-28T16:55:56;6.70;57.00
16517;DHT22;8371;52.272;9.746;2023-02-28T16:58:22;6.60;57.20
16517;DHT22;8371;52.272;9.746;2023-02-28T17:00:50;6.50;57.20
16517;DHT22;8371;52.272;9.746;2023-02-28T17:03:23;6.40;57.20
16517;DHT22;8371;52.272;9.746;2023-02-28T17:05:49;6.20;57.20
16517;DHT22;8371;52.272;9.746;2023-02-28T17:08:14;6.10;57.20
16517;DHT22;8371;52.272;9.746;2023-02-28T17:10:40;6.00;57.40
16517;DHT22;8371;52.272;9.746;2023-02-28T17:13:06;5.80;57.40
16517;DHT22;8371;52.272;9.746;2023-02-28T17:15:34;5.70;57.40
16517;DHT22;8371;52.272;9.746;2023-02-28T17:17:59;5.60;57.50
16517;DHT22;8371;52.272;9.746;2023-02-28T17:20:26;5.50;57.80
16517;DHT22;8371;52.272;9.746;2023-02-28T17:22:52;5.40;57.60
16517;DHT22;8371;52.272;9.746;2023-02-28T17:25:18;5.30;57.60
16517;DHT22;8371;52.272;9.746;2023-02-28T17:27:45;5.20;57.70
16517;DHT22;8371;52.272;9.746;2023-02-28T17:32:43;4.90;57.70
16517;DHT22;8371;52.272;9.746;2023-02-28T17:35:09;4.80;57.80
16517;DHT22;8371;52.272;9.746;2023-02-28T17:37:35;4.70;57.90
16517;DHT22;8371;52.272;9.746;2023-02-28T17:40:02;4.60;57.90
16517;DHT22;8371;52.272;9.746;2023-02-28T17:42:28;4.50;58.00
16517;DHT22;8371;52.272;9.746;2023-02-28T17:44:53;4.40;58.00
16517;DHT22;8371;52.272;9.746;2023-02-28T17:47:19;4.30;58.10
16517;DHT22;8371;52.272;9.746;2023-02-28T17:49:45;4.20;58.20
16517;DHT22;8371;52.272;9.746;2023-02-28T17:52:10;4.10;58.20
16517;DHT22;8371;52.272;9.746;2023-02-28T17:54:36;4.00;58.30
16517;DHT22;8371;52.272;9.746;2023-02-28T17:57:02;3.90;58.30
16517;DHT22;8371;52.272;9.746;2023-02-28T17:59:27;3.80;58.40
16517;DHT22;8371;52.272;9.746;2023-02-28T18:01:57;3.70;58.50
16517;DHT22;8371;52.272;9.746;2023-02-28T18:04:23;3.60;58.50
16517;DHT22;8371;52.272;9.746;2023-02-28T18:06:49;3.50;58.60